sensor_id;sensor_type;location;lat;lon;timestamp;pressure;altitude;pressure_sealevel;temperature;humidity
54924;BME280;40825;52.270;20.984;2023-03-17T00:00:37;101433.42;;;0.95;70.01
54924;BME280;40825;52.270;20.984;2023-03-17T00:03:25;101434.37;;;0.92;71.44
54924;BME280;40825;52.270;20.984;2023-03-17T00:05:52;101441.85;;;0.88;71.23
54924;BME280;40825;52.270;20.984;2023-03-17T00:08:21;101440.52;;;0.84;70.66
54924;BME280;40825;52.270;20.984;2023-03-17T00:10:48;101442.52;;;0.80;70.56
54924;BME280;40825;52.270;20.984;2023-03-17T00:13:13;101444.06;;;0.77;70.40
54924;BME280;40825;52.270;20.984;2023-03-17T00:15:40;101443.43;;;0.76;71.43
54924;BME280;40825;52.270;20.984;2023-03-17T00:18:14;101445.34;;;0.72;72.17
54924;BME280;40825;52.270;20.984;2023-03-17T00:20:40;101443.95;;;0.66;72.93
54924;BME280;40825;52.270;20.984;2023-03-17T00:23:19;101443.68;;;0.62;74.26
54924;BME280;40825;52.270;20.984;2023-03-17T00:25:46;101438.48;;;0.61;75.63
54924;BME280;40825;52.270;20.984;2023-03-17T00:28:24;101429.57;;;0.61;75.37
54924;BME280;40825;52.270;20.984;2023-03-17T00:30:53;101421.02;;;0.60;75.04
54924;BME280;40825;52.270;20.984;2023-03-17T00:33:24;101425.66;;;0.61;74.58
54924;BME280;40825;52.270;20.984;2023-03-17T00:35:51;101427.04;;;0.62;75.36
54924;BME280;40825;52.270;20.984;2023-03-17T00:38:18;101425.95;;;0.63;74.71
54924;BME280;40825;52.270;20.984;2023-03-17T00:40:45;101427.65;;;0.63;73.68
54924;BME280;40825;52.270;20.984;2023-03-17T00:43:11;101421.06;;;0.65;72.64
54924;BME280;40825;52.270;20.984;2023-03-17T00:45:38;101416.98;;;0.66;72.19
54924;BME280;40825;52.270;20.984;2023-03-17T00:48:09;101412.79;;;0.65;72.06
54924;BME280;40825;52.270;20.984;2023-03-17T00:50:38;101414.33;;;0.64;72.14
54924;BME280;40825;52.270;20.984;2023-03-17T00:53:08;101412.23;;;0.61;72.07
54924;BME280;40825;52.270;20.984;2023-03-17T00:55:34;101413.08;;;0.56;72.10
54924;BME280;40825;52.270;20.984;2023-03-17T00:58:11;101408.80;;;0.51;71.96
54924;BME280;40825;52.270;20.984;2023-03-17T01:00:37;101411.63;;;0.48;71.94
54924;BME280;40825;52.270;20.984;2023-03-17T01:03:02;101410.88;;;0.46;72.12
54924;BME280;40825;52.270;20.984;2023-03-17T01:05:28;101409.60;;;0.41;73.43
54924;BME280;40825;52.270;20.984;2023-03-17T01:07:54;101406.17;;;0.35;73.03
54924;BME280;40825;52.270;20.984;2023-03-17T01:10:26;101406.23;;;0.31;72.91
54924;BME280;40825;52.270;20.984;2023-03-17T01:12:54;101402.30;;;0.27;72.56
54924;BME280;40825;52.270;20.984;2023-03-17T01:15:23;101400.55;;;0.24;72.64
54924;BME280;40825;52.270;20.984;2023-03-17T01:17:50;101399.68;;;0.21;72.48
54924;BME280;40825;52.270;20.984;2023-03-17T01:20:21;101399.33;;;0.21;73.08
54924;BME280;40825;52.270;20.984;2023-03-17T01:22:48;101390.08;;;0.18;72.66
54924;BME280;40825;52.270;20.984;2023-03-17T01:25:15;101392.13;;;0.16;73.06
54924;BME280;40825;52.270;20.984;2023-03-17T01:27:43;101392.14;;;0.13;73.12
54924;BME280;40825;52.270;20.984;2023-03-17T01:30:21;101390.81;;;0.09;73.25
54924;BME280;40825;52.270;20.984;2023-03-17T01:32:48;101385.05;;;0.06;76.08
54924;BME280;40825;52.270;20.984;2023-03-17T01:35:14;101385.71;;;0.01;73.57
54924;BME280;40825;52.270;20.984;2023-03-17T01:37:40;101385.54;;;0.01;73.01
54924;BME280;40825;52.270;20.984;2023-03-17T01:40:09;101388.15;;;0.02;74.48
54924;BME280;40825;52.270;20.984;2023-03-17T01:42:38;101389.00;;;-0.01;74.26
54924;BME280;40825;52.270;20.984;2023-03-17T01:48:11;101391.27;;;-0.04;75.06
54924;BME280;40825;52.270;20.984;2023-03-17T01:50:38;101392.59;;;-0.05;73.53
54924;BME280;40825;52.270;20.984;2023-03-17T01:53:03;101398.48;;;-0.05;73.22
54924;BME280;40825;52.270;20.984;2023-03-17T01:55:30;101398.52;;;-0.05;74.36
54924;BME280;40825;52.270;20.984;2023-03-17T01:57:57;101398.40;;;-0.06;73.48
54924;BME280;40825;52.270;20.984;2023-03-17T02:00:24;101400.21;;;-0.04;73.19
54924;BME280;40825;52.270;20.984;2023-03-17T02:02:53;101402.44;;;-0.07;73.40
54924;BME280;40825;52.270;20.984;2023-03-17T02:05:27;101401.27;;;-0.10;73.36
54924;BME280;40825;52.270;20.984;2023-03-17T02:07:56;101397.65;;;-0.11;73.74
54924;BME280;40825;52.270;20.984;2023-03-17T02:10:24;101396.45;;;-0.14;74.14
54924;BME280;40825;52.270;20.984;2023-03-17T02:12:53;101398.14;;;-0.19;73.79
54924;BME280;40825;52.270;20.984;2023-03-17T02:15:20;101392.77;;;-0.22;74.06
54924;BME280;40825;52.270;20.984;2023-03-17T02:17:46;101400.45;;;-0.25;73.98
54924;BME280;40825;52.270;20.984;2023-03-17T02:22:43;101405.65;;;-0.27;73.67
54924;BME280;40825;52.270;20.984;2023-03-17T02:25:09;101406.45;;;-0.26;73.89
54924;BME280;40825;52.270;20.984;2023-03-17T02:27:41;101406.45;;;-0.29;75.63
54924;BME280;40825;52.270;20.984;2023-03-17T02:30:10;101410.37;;;-0.36;75.94
54924;BME280;40825;52.270;20.984;2023-03-17T02:32:37;101411.48;;;-0.42;74.55
54924;BME280;40825;52.270;20.984;2023-03-17T02:35:04;101406.59;;;-0.43;74.37
54924;BME280;40825;52.270;20.984;2023-03-17T02:37:31;101410.94;;;-0.42;74.13
54924;BME280;40825;52.270;20.984;2023-03-17T02:39:57;101413.53;;;-0.45;74.24
54924;BME280;40825;52.270;20.984;2023-03-17T02:42:23;101410.98;;;-0.46;75.73
54924;BME280;40825;52.270;20.984;2023-03-17T02:44:48;101403.89;;;-0.53;76.90
54924;BME280;40825;52.270;20.984;2023-03-17T02:47:15;101404.04;;;-0.58;75.39
54924;BME280;40825;52.270;20.984;2023-03-17T02:49:42;101410.17;;;-0.59;75.82
54924;BME280;40825;52.270;20.984;2023-03-17T02:52:08;101415.57;;;-0.58;75.86
54924;BME280;40825;52.270;20.984;2023-03-17T02:54:33;101418.33;;;-0.60;75.99
54924;BME280;40825;52.270;20.984;2023-03-17T02:56:59;101413.72;;;-0.62;76.71
54924;BME280;40825;52.270;20.984;2023-03-17T02:59:25;101420.48;;;-0.64;75.63
54924;BME280;40825;52.270;20.984;2023-03-17T03:01:51;101421.53;;;-0.64;76.26
54924;BME280;40825;52.270;20.984;2023-03-17T03:04:18;101428.15;;;-0.67;76.17
54924;BME280;40825;52.270;20.984;2023-03-17T03:06:45;101428.77;;;-0.68;75.39
54924;BME280;40825;52.270;20.984;2023-03-17T03:09:11;101434.73;;;-0.69;76.47
54924;BME280;40825;52.270;20.984;2023-03-17T03:11:38;101433.39;;;-0.67;75.33
54924;BME280;40825;52.270;20.984;2023-03-17T03:14:04;101441.38;;;-0.66;75.49
54924;BME280;40825;52.270;20.984;2023-03-17T03:16:29;101441.66;;;-0.65;75.41
54924;BME280;40825;52.270;20.984;2023-03-17T03:18:55;101446.02;;;-0.64;75.30
54924;BME280;40825;52.270;20.984;2023-03-17T03:21:20;101449.73;;;-0.65;75.30
54924;BME280;40825;52.270;20.984;2023-03-17T03:23:47;101448.56;;;-0.66;75.22
54924;BME280;40825;52.270;20.984;2023-03-17T03:26:12;101451.65;;;-0.68;75.23
54924;BME280;40825;52.270;20.984;2023-03-17T03:28:38;101456.27;;;-0.69;75.51
54924;BME280;40825;52.270;20.984;2023-03-17T03:31:03;101457.46;;;-0.75;76.00
54924;BME280;40825;52.270;20.984;2023-03-17T03:33:29;101455.67;;;-0.80;75.94
54924;BME280;40825;52.270;20.984;2023-03-17T03:35:54;101454.80;;;-0.83;75.55
54924;BME280;40825;52.270;20.984;2023-03-17T03:38:20;101458.29;;;-0.86;75.90
54924;BME280;40825;52.270;20.984;2023-03-17T03:40:45;101460.36;;;-0.89;76.18
54924;BME280;40825;52.270;20.984;2023-03-17T03:43:11;101460.08;;;-0.90;75.73
54924;BME280;40825;52.270;20.984;2023-03-17T03:45:37;101462.83;;;-0.89;75.72
54924;BME280;40825;52.270;20.984;2023-03-17T03:48:03;101458.24;;;-0.91;76.40
54924;BME280;40825;52.270;20.984;2023-03-17T03:50:30;101463.09;;;-0.93;75.91
54924;BME280;40825;52.270;20.984;2023-03-17T03:52:56;101462.20;;;-0.93;76.75
54924;BME280;40825;52.270;20.984;2023-03-17T03:55:21;101456.31;;;-0.98;77.18
54924;BME280;40825;52.270;20.984;2023-03-17T03:57:47;101449.30;;;-1.03;77.77
54924;BME280;40825;52.270;20.984;2023-03-17T04:00:13;101443.30;;;-1.08;77.48
54924;BME280;40825;52.270;20.984;2023-03-17T04:02:40;101442.02;;;-1.11;76.53
54924;BME280;40825;52.270;20.984;2023-03-17T04:05:07;101443.95;;;-1.11;77.51
54924;BME280;40825;52.270;20.984;2023-03-17T04:07:34;101440.55;;;-1.12;77.69
54924;BME280;40825;52.270;20.984;2023-03-17T04:10:00;101443.35;;;-1.13;76.83
54924;BME280;40825;52.270;20.984;2023-03-17T04:12:26;101442.94;;;-1.11;76.82
54924;BME280;40825;52.270;20.984;2023-03-17T04:14:51;101442.38;;;-1.11;76.62
54924;BME280;40825;52.270;20.984;2023-03-17T04:17:17;101441.36;;;-1.11;78.06
54924;BME280;40825;52.270;20.984;2023-03-17T04:19:42;101442.89;;;-1.13;78.53
54924;BME280;40825;52.270;20.984;2023-03-17T04:22:10;101442.59;;;-1.14;77.14
54924;BME280;40825;52.270;20.984;2023-03-17T04:24:36;101446.08;;;-1.14;76.96
54924;BME280;40825;52.270;20.984;2023-03-17T04:27:02;101445.23;;;-1.15;77.57
54924;BME280;40825;52.270;20.984;2023-03-17T04:29:28;101450.35;;;-1.18;78.25
54924;BME280;40825;52.270;20.984;2023-03-17T04:31:54;101454.73;;;-1.19;77.26
54924;BME280;40825;52.270;20.984;2023-03-17T04:34:19;101455.03;;;-1.18;77.89
54924;BME280;40825;52.270;20.984;2023-03-17T04:36:46;101453.30;;;-1.21;81.43
54924;BME280;40825;52.270;20.984;2023-03-17T04:39:13;101453.09;;;-1.24;79.18
54924;BME280;40825;52.270;20.984;2023-03-17T04:41:39;101457.01;;;-1.25;78.52
54924;BME280;40825;52.270;20.984;2023-03-17T04:44:06;101461.12;;;-1.23;77.80
54924;BME280;40825;52.270;20.984;2023-03-17T04:46:32;101467.61;;;-1.21;77.56
54924;BME280;40825;52.270;20.984;2023-03-17T04:48:58;101468.74;;;-1.19;77.44
54924;BME280;40825;52.270;20.984;2023-03-17T04:51:24;101465.80;;;-1.20;77.88
54924;BME280;40825;52.270;20.984;2023-03-17T04:53:50;101465.91;;;-1.19;77.91
54924;BME280;40825;52.270;20.984;2023-03-17T04:56:17;101465.60;;;-1.19;78.96
54924;BME280;40825;52.270;20.984;2023-03-17T04:58:43;101457.81;;;-1.21;79.68
54924;BME280;40825;52.270;20.984;2023-03-17T05:01:09;101450.24;;;-1.23;80.51
54924;BME280;40825;52.270;20.984;2023-03-17T05:03:35;101444.44;;;-1.25;81.68
54924;BME280;40825;52.270;20.984;2023-03-17T05:06:02;101442.94;;;-1.26;81.93
54924;BME280;40825;52.270;20.984;2023-03-17T05:08:28;101441.08;;;-1.28;81.15
54924;BME280;40825;52.270;20.984;2023-03-17T05:10:54;101451.58;;;-1.28;82.90
54924;BME280;40825;52.270;20.984;2023-03-17T05:13:21;101454.66;;;-1.26;82.96
54924;BME280;40825;52.270;20.984;2023-03-17T05:15:48;101456.05;;;-1.27;85.47
54924;BME280;40825;52.270;20.984;2023-03-17T05:18:15;101465.95;;;-1.26;84.68
54924;BME280;40825;52.270;20.984;2023-03-17T05:20:41;101471.96;;;-1.24;84.66
54924;BME280;40825;52.270;20.984;2023-03-17T05:23:07;101477.44;;;-1.22;83.53
54924;BME280;40825;52.270;20.984;2023-03-17T05:25:33;101482.14;;;-1.18;84.30
54924;BME280;40825;52.270;20.984;2023-03-17T05:27:58;101483.35;;;-1.15;84.27
54924;BME280;40825;52.270;20.984;2023-03-17T05:30:24;101482.55;;;-1.10;83.29
54924;BME280;40825;52.270;20.984;2023-03-17T05:32:52;101490.02;;;-1.06;82.38
54924;BME280;40825;52.270;20.984;2023-03-17T05:35:18;101492.64;;;-1.00;80.93
54924;BME280;40825;52.270;20.984;2023-03-17T05:37:44;101484.48;;;-0.92;80.58
54924;BME280;40825;52.270;20.984;2023-03-17T05:40:11;101490.84;;;-0.81;81.03
54924;BME280;40825;52.270;20.984;2023-03-17T05:42:38;101491.54;;;-0.66;80.31
54924;BME280;40825;52.270;20.984;2023-03-17T05:45:04;101498.30;;;-0.43;80.59
54924;BME280;40825;52.270;20.984;2023-03-17T05:47:31;101499.22;;;-0.18;80.07
54924;BME280;40825;52.270;20.984;2023-03-17T05:49:58;101505.15;;;0.11;79.99
54924;BME280;40825;52.270;20.984;2023-03-17T05:52:24;101501.05;;;0.41;80.04
54924;BME280;40825;52.270;20.984;2023-03-17T05:54:50;101500.06;;;0.70;79.78
54924;BME280;40825;52.270;20.984;2023-03-17T05:57:16;101506.35;;;0.98;78.78
54924;BME280;40825;52.270;20.984;2023-03-17T05:59:42;101508.95;;;1.34;78.62
54924;BME280;40825;52.270;20.984;2023-03-17T06:02:08;101515.35;;;1.71;78.17
54924;BME280;40825;52.270;20.984;2023-03-17T06:04:36;101515.23;;;2.07;77.28
54924;BME280;40825;52.270;20.984;2023-03-17T06:07:02;101515.48;;;2.44;77.67
54924;BME280;40825;52.270;20.984;2023-03-17T06:09:29;101511.06;;;2.78;74.96
54924;BME280;40825;52.270;20.984;2023-03-17T06:11:55;101509.89;;;3.05;73.73
54924;BME280;40825;52.270;20.984;2023-03-17T06:14:20;101501.52;;;3.20;72.53
54924;BME280;40825;52.270;20.984;2023-03-17T06:16:46;101497.33;;;3.27;72.79
54924;BME280;40825;52.270;20.984;2023-03-17T06:19:12;101495.52;;;3.42;75.13
54924;BME280;40825;52.270;20.984;2023-03-17T06:21:37;101493.66;;;3.43;71.96
54924;BME280;40825;52.270;20.984;2023-03-17T06:24:03;101486.95;;;3.34;73.21
54924;BME280;40825;52.270;20.984;2023-03-17T06:26:29;101491.70;;;3.29;73.29
54924;BME280;40825;52.270;20.984;2023-03-17T06:28:54;101489.89;;;3.18;72.45
54924;BME280;40825;52.270;20.984;2023-03-17T06:31:20;101488.54;;;3.08;71.53
54924;BME280;40825;52.270;20.984;2023-03-17T06:33:46;101489.89;;;3.11;72.04
54924;BME280;40825;52.270;20.984;2023-03-17T06:36:12;101498.20;;;3.24;71.19
54924;BME280;40825;52.270;20.984;2023-03-17T06:38:38;101499.15;;;3.45;72.38
54924;BME280;40825;52.270;20.984;2023-03-17T06:41:04;101501.83;;;3.54;70.48
54924;BME280;40825;52.270;20.984;2023-03-17T06:43:30;101509.16;;;3.45;70.65
54924;BME280;40825;52.270;20.984;2023-03-17T06:45:57;101512.14;;;3.36;69.82
54924;BME280;40825;52.270;20.984;2023-03-17T06:48:23;101509.36;;;3.26;70.31
54924;BME280;40825;52.270;20.984;2023-03-17T06:50:48;101511.19;;;3.18;69.97
54924;BME280;40825;52.270;20.984;2023-03-17T06:53:15;101513.16;;;3.20;69.18
54924;BME280;40825;52.270;20.984;2023-03-17T06:55:41;101513.91;;;3.29;69.30
54924;BME280;40825;52.270;20.984;2023-03-17T06:58:08;101516.61;;;3.40;67.72
54924;BME280;40825;52.270;20.984;2023-03-17T07:00:35;101515.60;;;3.25;67.57
54924;BME280;40825;52.270;20.984;2023-03-17T07:03:03;101520.46;;;3.11;68.31
54924;BME280;40825;52.270;20.984;2023-03-17T07:05:30;101521.48;;;2.93;68.13
54924;BME280;40825;52.270;20.984;2023-03-17T07:07:56;101514.61;;;2.88;69.18
54924;BME280;40825;52.270;20.984;2023-03-17T07:10:21;101513.29;;;2.87;69.01
54924;BME280;40825;52.270;20.984;2023-03-17T07:12:47;101510.71;;;3.22;69.23
54924;BME280;40825;52.270;20.984;2023-03-17T07:15:14;101510.34;;;3.90;68.00
54924;BME280;40825;52.270;20.984;2023-03-17T07:17:40;101512.44;;;4.49;65.29
54924;BME280;40825;52.270;20.984;2023-03-17T07:20:06;101506.17;;;4.97;65.88
54924;BME280;40825;52.270;20.984;2023-03-17T07:22:31;101505.41;;;5.46;63.26
54924;BME280;40825;52.270;20.984;2023-03-17T07:24:57;101503.50;;;5.90;62.39
54924;BME280;40825;52.270;20.984;2023-03-17T07:27:23;101503.44;;;6.14;62.24
54924;BME280;40825;52.270;20.984;2023-03-17T07:29:51;101507.28;;;6.32;62.10
54924;BME280;40825;52.270;20.984;2023-03-17T07:32:17;101499.35;;;6.41;59.62
54924;BME280;40825;52.270;20.984;2023-03-17T07:34:42;101499.21;;;6.48;60.37
54924;BME280;40825;52.270;20.984;2023-03-17T07:37:08;101498.49;;;6.38;60.93
54924;BME280;40825;52.270;20.984;2023-03-17T07:39:34;101501.30;;;6.42;60.83
54924;BME280;40825;52.270;20.984;2023-03-17T07:42:00;101498.49;;;6.32;60.11
54924;BME280;40825;52.270;20.984;2023-03-17T07:44:27;101490.95;;;6.17;61.11
54924;BME280;40825;52.270;20.984;2023-03-17T07:46:53;101492.91;;;6.00;61.59
54924;BME280;40825;52.270;20.984;2023-03-17T07:49:19;101495.33;;;6.01;60.90
54924;BME280;40825;52.270;20.984;2023-03-17T07:51:45;101498.24;;;6.00;60.47
54924;BME280;40825;52.270;20.984;2023-03-17T07:54:12;101496.75;;;5.84;60.47
54924;BME280;40825;52.270;20.984;2023-03-17T07:56:38;101493.16;;;5.74;60.56
54924;BME280;40825;52.270;20.984;2023-03-17T07:59:04;101494.49;;;5.84;60.94
54924;BME280;40825;52.270;20.984;2023-03-17T08:01:30;101494.73;;;6.04;60.18
54924;BME280;40825;52.270;20.984;2023-03-17T08:03:56;101488.95;;;6.10;59.50
54924;BME280;40825;52.270;20.984;2023-03-17T08:06:23;101488.30;;;6.23;59.01
54924;BME280;40825;52.270;20.984;2023-03-17T08:08:50;101487.27;;;6.33;58.93
54924;BME280;40825;52.270;20.984;2023-03-17T08:11:16;101488.52;;;6.45;57.92
54924;BME280;40825;52.270;20.984;2023-03-17T08:13:43;101481.58;;;6.48;57.12
54924;BME280;40825;52.270;20.984;2023-03-17T08:16:09;101482.91;;;6.50;58.47
54924;BME280;40825;52.270;20.984;2023-03-17T08:18:36;101479.77;;;6.44;57.16
54924;BME280;40825;52.270;20.984;2023-03-17T08:21:04;101481.29;;;6.43;58.24
54924;BME280;40825;52.270;20.984;2023-03-17T08:23:31;101483.03;;;6.35;58.00
54924;BME280;40825;52.270;20.984;2023-03-17T08:26:01;101484.65;;;6.39;57.59
54924;BME280;40825;52.270;20.984;2023-03-17T08:28:28;101489.59;;;6.47;56.50
54924;BME280;40825;52.270;20.984;2023-03-17T08:30:53;101492.56;;;6.63;56.19
54924;BME280;40825;52.270;20.984;2023-03-17T08:33:20;101494.20;;;6.87;55.40
54924;BME280;40825;52.270;20.984;2023-03-17T08:35:47;101496.60;;;6.84;54.38
54924;BME280;40825;52.270;20.984;2023-03-17T08:38:13;101493.54;;;6.84;55.35
54924;BME280;40825;52.270;20.984;2023-03-17T08:40:39;101491.86;;;6.99;54.97
54924;BME280;40825;52.270;20.984;2023-03-17T08:43:05;101497.06;;;6.98;53.62
54924;BME280;40825;52.270;20.984;2023-03-17T08:45:32;101507.63;;;6.71;52.12
54924;BME280;40825;52.270;20.984;2023-03-17T08:47:57;101511.42;;;6.50;52.32
54924;BME280;40825;52.270;20.984;2023-03-17T08:50:23;101508.14;;;6.55;53.87
54924;BME280;40825;52.270;20.984;2023-03-17T08:52:50;101506.91;;;6.75;53.85
54924;BME280;40825;52.270;20.984;2023-03-17T08:55:16;101509.45;;;6.86;54.17
54924;BME280;40825;52.270;20.984;2023-03-17T08:57:43;101512.38;;;6.93;53.95
54924;BME280;40825;52.270;20.984;2023-03-17T09:00:12;101509.67;;;7.00;53.47
54924;BME280;40825;52.270;20.984;2023-03-17T09:02:41;101509.19;;;6.95;52.85
54924;BME280;40825;52.270;20.984;2023-03-17T09:05:13;101509.04;;;6.85;53.21
54924;BME280;40825;52.270;20.984;2023-03-17T09:07:40;101508.27;;;6.98;53.37
54924;BME280;40825;52.270;20.984;2023-03-17T09:10:07;101513.00;;;7.10;52.59
54924;BME280;40825;52.270;20.984;2023-03-17T09:12:35;101517.92;;;7.26;53.65
54924;BME280;40825;52.270;20.984;2023-03-17T09:15:03;101516.10;;;7.34;52.23
54924;BME280;40825;52.270;20.984;2023-03-17T09:17:28;101522.09;;;7.38;52.49
54924;BME280;40825;52.270;20.984;2023-03-17T09:19:54;101522.42;;;7.29;51.90
54924;BME280;40825;52.270;20.984;2023-03-17T09:22:20;101517.14;;;7.31;53.04
54924;BME280;40825;52.270;20.984;2023-03-17T09:24:46;101512.78;;;7.42;52.17
54924;BME280;40825;52.270;20.984;2023-03-17T09:27:12;101513.39;;;7.54;52.73
54924;BME280;40825;52.270;20.984;2023-03-17T09:29:38;101508.67;;;7.84;52.70
54924;BME280;40825;52.270;20.984;2023-03-17T09:32:03;101501.30;;;7.96;51.31
54924;BME280;40825;52.270;20.984;2023-03-17T09:34:29;101502.13;;;8.12;50.92
54924;BME280;40825;52.270;20.984;2023-03-17T09:36:55;101498.75;;;8.05;49.48
54924;BME280;40825;52.270;20.984;2023-03-17T09:39:21;101499.94;;;8.07;48.63
54924;BME280;40825;52.270;20.984;2023-03-17T09:44:26;101491.66;;;8.27;47.68
54924;BME280;40825;52.270;20.984;2023-03-17T09:49:40;101478.23;;;8.43;47.96
54924;BME280;40825;52.270;20.984;2023-03-17T09:52:12;101478.99;;;8.56;47.12
54924;BME280;40825;52.270;20.984;2023-03-17T09:54:40;101476.34;;;8.54;47.76
54924;BME280;40825;52.270;20.984;2023-03-17T09:57:18;101465.84;;;8.87;47.62
54924;BME280;40825;52.270;20.984;2023-03-17T09:59:49;101469.96;;;8.99;46.18
54924;BME280;40825;52.270;20.984;2023-03-17T10:02:28;101460.84;;;8.84;45.42
54924;BME280;40825;52.270;20.984;2023-03-17T10:04:55;101456.32;;;8.87;45.63
54924;BME280;40825;52.270;20.984;2023-03-17T10:07:38;101455.96;;;9.04;45.88
54924;BME280;40825;52.270;20.984;2023-03-17T10:10:24;101453.60;;;9.01;44.49
54924;BME280;40825;52.270;20.984;2023-03-17T10:16:31;101444.17;;;9.05;44.61
54924;BME280;40825;52.270;20.984;2023-03-17T10:18:47;101445.73;;;9.18;44.08
54924;BME280;40825;52.270;20.984;2023-03-17T10:21:18;101443.97;;;9.32;44.24
54924;BME280;40825;52.270;20.984;2023-03-17T10:23:47;101447.95;;;9.40;43.55
54924;BME280;40825;52.270;20.984;2023-03-17T10:26:27;101441.27;;;9.39;42.92
54924;BME280;40825;52.270;20.984;2023-03-17T10:28:54;101441.56;;;9.42;42.47
54924;BME280;40825;52.270;20.984;2023-03-17T10:31:27;101440.73;;;9.55;43.02
54924;BME280;40825;52.270;20.984;2023-03-17T10:33:54;101436.66;;;9.53;42.96
54924;BME280;40825;52.270;20.984;2023-03-17T10:36:38;101429.48;;;9.56;43.30
54924;BME280;40825;52.270;20.984;2023-03-17T10:39:06;101425.27;;;9.64;42.27
54924;BME280;40825;52.270;20.984;2023-03-17T10:41:37;101424.91;;;9.76;41.97
54924;BME280;40825;52.270;20.984;2023-03-17T10:44:20;101427.37;;;9.90;42.82
54924;BME280;40825;52.270;20.984;2023-03-17T10:46:54;101421.13;;;9.90;42.07
54924;BME280;40825;52.270;20.984;2023-03-17T10:49:20;101420.31;;;9.71;41.63
54924;BME280;40825;52.270;20.984;2023-03-17T10:51:50;101416.55;;;9.62;42.66
54924;BME280;40825;52.270;20.984;2023-03-17T10:54:18;101416.65;;;9.56;42.19
54924;BME280;40825;52.270;20.984;2023-03-17T10:56:47;101419.02;;;9.45;41.74
54924;BME280;40825;52.270;20.984;2023-03-17T10:59:27;101424.38;;;9.38;41.65
54924;BME280;40825;52.270;20.984;2023-03-17T11:01:57;101419.22;;;9.38;42.15
54924;BME280;40825;52.270;20.984;2023-03-17T11:04:37;101420.61;;;9.31;42.45
54924;BME280;40825;52.270;20.984;2023-03-17T11:07:21;101420.60;;;9.10;41.94
54924;BME280;40825;52.270;20.984;2023-03-17T11:09:57;101419.09;;;8.99;42.11
54924;BME280;40825;52.270;20.984;2023-03-17T11:12:40;101421.90;;;8.86;42.36
54924;BME280;40825;52.270;20.984;2023-03-17T11:15:13;101419.68;;;8.84;42.72
54924;BME280;40825;52.270;20.984;2023-03-17T11:23:20;101408.20;;;8.79;42.30
54924;BME280;40825;52.270;20.984;2023-03-17T11:25:53;101407.38;;;8.82;42.43
54924;BME280;40825;52.270;20.984;2023-03-17T11:28:23;101406.16;;;8.82;42.42
54924;BME280;40825;52.270;20.984;2023-03-17T11:31:29;101399.79;;;8.82;42.22
54924;BME280;40825;52.270;20.984;2023-03-17T11:40:06;101381.42;;;9.02;41.91
54924;BME280;40825;52.270;20.984;2023-03-17T11:46:01;101368.98;;;9.28;41.76
54924;BME280;40825;52.270;20.984;2023-03-17T11:48:21;101368.02;;;9.38;41.34
54924;BME280;40825;52.270;20.984;2023-03-17T11:50:50;101365.33;;;9.45;40.99
54924;BME280;40825;52.270;20.984;2023-03-17T11:59:01;101349.42;;;9.48;40.96
54924;BME280;40825;52.270;20.984;2023-03-17T12:01:33;101340.52;;;9.48;41.41
54924;BME280;40825;52.270;20.984;2023-03-17T12:04:17;101331.91;;;9.57;41.65
54924;BME280;40825;52.270;20.984;2023-03-17T12:06:49;101327.45;;;9.63;41.76
54924;BME280;40825;52.270;20.984;2023-03-17T12:09:24;101330.34;;;9.73;41.86
54924;BME280;40825;52.270;20.984;2023-03-17T12:11:52;101341.46;;;9.75;40.74
54924;BME280;40825;52.270;20.984;2023-03-17T12:14:22;101336.77;;;9.67;40.60
54924;BME280;40825;52.270;20.984;2023-03-17T12:20:15;101328.36;;;9.52;41.06
54924;BME280;40825;52.270;20.984;2023-03-17T12:23:03;101324.55;;;9.39;41.17
54924;BME280;40825;52.270;20.984;2023-03-17T12:25:33;101324.70;;;9.29;41.60
54924;BME280;40825;52.270;20.984;2023-03-17T12:28:13;101326.79;;;9.26;42.03
54924;BME280;40825;52.270;20.984;2023-03-17T12:30:50;101328.32;;;9.18;41.95
54924;BME280;40825;52.270;20.984;2023-03-17T12:36:40;101320.34;;;8.90;42.40
54924;BME280;40825;52.270;20.984;2023-03-17T12:39:15;101320.62;;;8.84;42.80
54924;BME280;40825;52.270;20.984;2023-03-17T12:55:17;101308.06;;;8.71;43.68
54924;BME280;40825;52.270;20.984;2023-03-17T12:57:59;101308.65;;;8.69;43.65
54924;BME280;40825;52.270;20.984;2023-03-17T13:00:32;101310.20;;;8.71;43.93
54924;BME280;40825;52.270;20.984;2023-03-17T13:03:21;101304.13;;;8.75;43.81
54924;BME280;40825;52.270;20.984;2023-03-17T13:05:54;101293.05;;;8.68;43.70
54924;BME280;40825;52.270;20.984;2023-03-17T13:08:30;101295.38;;;8.63;43.94
54924;BME280;40825;52.270;20.984;2023-03-17T13:11:24;101294.51;;;8.59;43.89
54924;BME280;40825;52.270;20.984;2023-03-17T13:16:44;101290.40;;;8.61;44.11
54924;BME280;40825;52.270;20.984;2023-03-17T13:19:22;101294.08;;;8.62;44.17
54924;BME280;40825;52.270;20.984;2023-03-17T13:24:49;101284.48;;;8.57;43.71
54924;BME280;40825;52.270;20.984;2023-03-17T13:29:58;101282.14;;;8.60;43.68
54924;BME280;40825;52.270;20.984;2023-03-17T13:34:52;101274.50;;;8.62;43.46
54924;BME280;40825;52.270;20.984;2023-03-17T13:37:30;101271.75;;;8.60;42.97
54924;BME280;40825;52.270;20.984;2023-03-17T13:45:36;101250.36;;;8.43;42.32
54924;BME280;40825;52.270;20.984;2023-03-17T13:53:44;101262.77;;;8.48;42.38
54924;BME280;40825;52.270;20.984;2023-03-17T13:56:17;101262.48;;;8.49;42.50
54924;BME280;40825;52.270;20.984;2023-03-17T14:01:30;101256.86;;;8.48;42.35
54924;BME280;40825;52.270;20.984;2023-03-17T14:03:59;101251.13;;;8.44;42.34
54924;BME280;40825;52.270;20.984;2023-03-17T14:06:28;101249.67;;;8.40;42.40
54924;BME280;40825;52.270;20.984;2023-03-17T14:09:08;101244.89;;;8.35;42.33
54924;BME280;40825;52.270;20.984;2023-03-17T14:11:39;101240.59;;;8.34;42.58
54924;BME280;40825;52.270;20.984;2023-03-17T14:16:37;101228.55;;;8.34;42.47